createdAt,value
2018-05-05T00:00:14.620Z,100958.08
2018-05-05T00:02:42.020Z,100966.55
2018-05-05T00:05:09.403Z,100963.97
2018-05-05T00:07:36.792Z,100957.80
2018-05-05T00:10:04.186Z,100959.58
2018-05-05T00:12:31.571Z,100959.59
2018-05-05T00:14:58.971Z,100961.54
2018-05-05T00:17:26.359Z,100963.48
2018-05-05T00:19:53.751Z,100963.18
2018-05-05T00:22:21.140Z,100967.62
2018-05-05T00:24:48.527Z,100969.39
2018-05-05T00:27:15.922Z,100969.90
2018-05-05T00:29:43.303Z,100970.82
2018-05-05T00:32:10.694Z,100970.74
2018-05-05T00:34:38.086Z,100970.86
2018-05-05T00:37:05.802Z,100966.92
2018-05-05T00:39:33.194Z,100964.78
2018-05-05T00:42:00.575Z,100965.80
2018-05-05T00:44:27.970Z,100963.33
2018-05-05T00:46:55.359Z,100959.92
2018-05-05T00:49:22.755Z,100957.86
2018-05-05T00:51:50.146Z,100956.95
2018-05-05T00:54:29.336Z,100952.94
2018-05-05T00:56:56.722Z,100946.55
2018-05-05T00:59:24.116Z,100950.88
2018-05-05T01:01:51.503Z,100948.80
2018-05-05T01:04:19.099Z,100947.45
2018-05-05T01:06:46.499Z,100947.95
2018-05-05T01:09:13.883Z,100950.94
2018-05-05T01:11:41.282Z,100946.30
2018-05-05T01:14:08.671Z,100949.69
2018-05-05T01:16:36.066Z,100950.41
2018-05-05T01:19:03.456Z,100950.52
2018-05-05T01:21:30.839Z,100952.66
2018-05-05T01:23:58.551Z,100957.39
2018-05-05T01:26:25.942Z,100953.08
2018-05-05T01:28:53.343Z,100955.86
2018-05-05T01:31:20.729Z,100952.66
2018-05-05T01:33:48.123Z,100955.13
2018-05-05T01:36:15.511Z,100957.48
2018-05-05T01:38:42.907Z,100955.84
2018-05-05T01:41:10.295Z,100960.97
2018-05-05T01:43:37.680Z,100961.64
2018-05-05T01:46:05.075Z,100962.89
2018-05-05T01:48:32.484Z,100962.28
2018-05-05T01:50:59.882Z,100962.03
2018-05-05T01:53:27.503Z,100958.25
2018-05-05T01:55:54.894Z,100962.55
2018-05-05T01:58:22.306Z,100958.95
2018-05-05T02:00:49.683Z,100966.73
2018-05-05T02:03:17.082Z,100965.28
2018-05-05T02:05:44.470Z,100973.80
2018-05-05T02:08:11.871Z,100973.86
2018-05-05T02:10:39.272Z,100967.73
2018-05-05T02:13:06.654Z,100969.97
2018-05-05T02:15:34.056Z,100967.01
2018-05-05T02:18:01.439Z,100965.67
2018-05-05T02:20:28.827Z,100968.86
2018-05-05T02:22:56.223Z,100971.67
2018-05-05T02:25:23.750Z,100966.91
2018-05-05T02:27:51.149Z,100976.33
2018-05-05T02:30:18.531Z,100977.56
2018-05-05T02:32:45.914Z,100976.30
2018-05-05T02:35:13.307Z,100977.56
2018-05-05T02:37:40.691Z,100976.99
2018-05-05T02:40:08.095Z,100983.01
2018-05-05T02:42:35.495Z,100974.27
2018-05-05T02:45:02.878Z,100975.48
2018-05-05T02:47:30.276Z,100976.78
2018-05-05T02:49:57.663Z,100980.78
2018-05-05T02:52:25.091Z,100986.00
2018-05-05T02:54:52.471Z,100985.87
2018-05-05T02:57:19.867Z,100983.08
2018-05-05T02:59:47.259Z,100985.87
2018-05-05T03:02:14.651Z,100983.61
2018-05-05T03:04:42.042Z,100977.05
2018-05-05T03:07:09.431Z,100974.88
2018-05-05T03:09:36.825Z,100969.30
2018-05-05T03:12:04.215Z,100973.52
2018-05-05T03:14:31.604Z,100969.02
2018-05-05T03:16:58.999Z,100962.82
2018-05-05T03:19:26.550Z,100964.12
2018-05-05T03:21:53.930Z,100961.34
2018-05-05T03:24:21.331Z,100963.34
2018-05-05T03:26:48.782Z,100961.88
2018-05-05T03:29:16.134Z,100962.25
2018-05-05T03:31:43.528Z,100970.55
2018-05-05T03:34:10.927Z,100970.68
2018-05-05T03:36:38.314Z,100968.82
2018-05-05T03:39:05.723Z,100966.63
2018-05-05T03:41:33.098Z,100969.55
2018-05-05T03:44:00.502Z,100966.78
2018-05-05T03:46:27.890Z,100975.48
2018-05-05T03:48:55.282Z,100970.79
2018-05-05T03:51:22.675Z,100973.24
2018-05-05T03:53:50.071Z,100967.95
2018-05-05T03:56:17.486Z,100976.67
2018-05-05T03:58:44.875Z,100980.15
2018-05-05T04:04:16.952Z,100978.15
2018-05-05T04:06:44.351Z,100980.81
2018-05-05T04:09:11.740Z,100986.48
2018-05-05T04:11:39.176Z,100978.15
2018-05-05T04:14:06.571Z,100985.09
2018-05-05T04:16:33.967Z,100992.76
2018-05-05T04:19:01.384Z,100991.39
2018-05-05T04:21:28.783Z,100989.12
2018-05-05T04:23:56.178Z,100993.88
2018-05-05T04:26:23.575Z,100992.94
2018-05-05T04:28:51.039Z,100992.30
2018-05-05T04:31:18.436Z,100996.50
2018-05-05T04:33:45.839Z,100989.36
2018-05-05T04:36:13.235Z,100992.83
2018-05-05T04:38:40.635Z,100996.59
2018-05-05T04:41:08.027Z,101001.05
2018-05-05T04:43:35.436Z,101003.84
2018-05-05T04:46:02.823Z,101000.76
2018-05-05T04:48:30.282Z,101002.80
2018-05-05T04:50:57.670Z,101007.48
2018-05-05T04:53:25.191Z,101006.27
2018-05-05T04:55:52.608Z,101006.30
2018-05-05T04:58:19.986Z,101007.42
2018-05-05T05:00:47.374Z,101005.91
2018-05-05T05:03:14.769Z,101013.52
2018-05-05T05:05:42.151Z,101007.03
2018-05-05T05:08:09.558Z,101009.63
2018-05-05T05:10:36.937Z,101007.76
2018-05-05T05:13:04.322Z,101010.17
2018-05-05T05:15:31.759Z,101013.66
2018-05-05T05:17:59.146Z,101009.06
2018-05-05T05:20:26.547Z,101004.59
2018-05-05T05:22:53.934Z,101010.09
2018-05-05T05:25:21.316Z,101011.58
2018-05-05T05:27:48.710Z,101008.86
2018-05-05T05:30:16.102Z,101011.03
2018-05-05T05:32:43.519Z,101012.20
2018-05-05T05:35:10.908Z,101013.64
2018-05-05T05:37:38.299Z,101006.40
2018-05-05T05:40:05.690Z,101010.22
2018-05-05T05:42:33.117Z,101010.00
2018-05-05T05:45:00.517Z,101007.86
2018-05-05T05:47:27.903Z,101009.75
2018-05-05T05:49:55.306Z,101013.41
2018-05-05T05:52:22.691Z,101012.55
2018-05-05T05:54:50.076Z,101012.59
2018-05-05T05:57:17.482Z,101009.34
2018-05-05T05:59:44.956Z,101017.45
2018-05-05T06:02:12.267Z,101015.36
2018-05-05T06:04:39.667Z,101022.98
2018-05-05T06:07:07.103Z,101014.41
2018-05-05T06:09:34.491Z,101013.61
2018-05-05T06:12:01.882Z,101014.45
2018-05-05T06:14:29.273Z,101014.38
2018-05-05T06:16:56.658Z,101013.70
2018-05-05T06:19:24.051Z,101009.22
2018-05-05T06:21:51.434Z,101011.98
2018-05-05T06:24:18.815Z,101015.62
2018-05-05T06:26:46.311Z,101011.98
2018-05-05T06:29:13.772Z,101018.67
2018-05-05T06:31:41.154Z,101013.41
2018-05-05T06:34:08.591Z,101012.25
2018-05-05T06:36:35.975Z,101005.62
2018-05-05T06:39:03.351Z,101008.06
2018-05-05T06:41:30.739Z,101009.48
2018-05-05T06:43:58.115Z,101000.19
2018-05-05T06:46:25.503Z,101017.87
2018-05-05T06:48:52.904Z,101011.25
2018-05-05T06:51:20.274Z,101008.23
2018-05-05T06:53:47.658Z,101008.23
2018-05-05T06:56:15.060Z,101014.96
2018-05-05T06:58:42.446Z,101013.86
2018-05-05T07:01:09.825Z,101015.13
2018-05-05T07:03:37.198Z,101002.80
2018-05-05T07:06:04.586Z,101005.12
2018-05-05T07:08:31.992Z,101004.64
2018-05-05T07:10:59.362Z,101012.39
2018-05-05T07:13:26.742Z,101011.25
2018-05-05T07:15:54.118Z,101012.89
2018-05-05T07:18:21.513Z,101005.85
2018-05-05T07:20:48.883Z,101011.17
2018-05-05T07:23:16.270Z,101011.17
2018-05-05T07:25:43.653Z,101012.48
2018-05-05T07:28:11.077Z,101008.89
2018-05-05T07:30:38.643Z,101005.89
2018-05-05T07:33:06.015Z,101004.30
2018-05-05T07:35:33.406Z,101009.31
2018-05-05T07:38:00.801Z,101000.66
2018-05-05T07:40:28.179Z,101004.14
2018-05-05T07:42:55.554Z,101000.78
2018-05-05T07:45:22.931Z,101001.20
2018-05-05T07:47:50.326Z,101005.31
2018-05-05T07:50:17.703Z,101015.43
2018-05-05T07:52:45.447Z,101011.69
2018-05-05T07:55:12.826Z,101001.59
2018-05-05T07:57:40.215Z,101006.16
2018-05-05T08:00:07.600Z,101007.85
2018-05-05T08:02:35.028Z,101007.33
2018-05-05T08:05:02.758Z,101007.84
2018-05-05T08:07:30.146Z,101007.86
2018-05-05T08:09:57.518Z,101010.90
2018-05-05T08:12:24.902Z,101015.38
2018-05-05T08:14:52.288Z,101013.55
2018-05-05T08:17:19.675Z,101015.83
2018-05-05T08:19:47.058Z,101028.68
2018-05-05T08:22:14.443Z,101034.04
2018-05-05T08:24:41.855Z,101034.94
2018-05-05T08:27:09.235Z,101033.23
2018-05-05T08:29:36.626Z,101037.34
2018-05-05T08:32:04.319Z,101038.31
2018-05-05T08:34:31.707Z,101038.32
2018-05-05T08:36:59.098Z,101030.36
2018-05-05T08:39:26.474Z,101034.66
2018-05-05T08:41:53.871Z,101030.17
2018-05-05T08:44:21.247Z,101043.95
2018-05-05T08:46:48.626Z,101040.17
2018-05-05T08:49:16.017Z,101037.75
2018-05-05T08:51:43.394Z,101038.13
2018-05-05T08:54:10.878Z,101044.41
2018-05-05T08:56:38.259Z,101047.20
2018-05-05T08:59:05.638Z,101043.43
2018-05-05T09:01:33.031Z,101050.36
2018-05-05T09:04:00.410Z,101051.84
2018-05-05T09:06:27.795Z,101054.37
2018-05-05T09:08:55.174Z,101044.34
2018-05-05T09:11:22.554Z,101043.57
2018-05-05T09:13:50.126Z,101040.41
2018-05-05T09:16:17.617Z,101043.39
2018-05-05T09:18:45.001Z,101040.67
2018-05-05T09:21:12.423Z,101046.73
2018-05-05T09:23:39.831Z,101042.69
2018-05-05T09:26:07.230Z,101045.50
2018-05-05T09:28:34.654Z,101040.40
2018-05-05T09:31:02.039Z,101048.56
2018-05-05T09:33:29.422Z,101043.59
2018-05-05T09:35:56.821Z,101039.56
2018-05-05T09:38:24.191Z,101036.91
2018-05-05T09:40:51.666Z,101035.68
2018-05-05T09:43:19.088Z,101039.22
2018-05-05T09:45:46.465Z,101040.41
2018-05-05T09:48:13.863Z,101044.13
2018-05-05T09:50:41.252Z,101037.36
2018-05-05T09:53:08.634Z,101038.13
2018-05-05T09:55:36.031Z,101043.78
2018-05-05T09:58:03.428Z,101043.35
2018-05-05T10:00:30.814Z,101030.51
2018-05-05T10:02:58.206Z,101029.05
2018-05-05T10:05:25.592Z,101027.47
2018-05-05T10:07:52.990Z,101023.81
2018-05-05T10:10:20.373Z,101026.56
2018-05-05T10:12:47.759Z,101028.48
2018-05-05T10:15:15.150Z,101023.69
2018-05-05T10:17:42.542Z,101016.05
2018-05-05T10:20:09.923Z,101020.88
2018-05-05T10:22:37.341Z,101018.96
2018-05-05T10:25:04.715Z,101017.94
2018-05-05T10:27:32.091Z,101015.42
2018-05-05T10:29:59.495Z,101020.56
2018-05-05T10:32:26.870Z,101012.37
2018-05-05T10:34:54.251Z,101001.11
2018-05-05T10:37:21.646Z,101007.55
2018-05-05T10:39:49.023Z,101005.09
2018-05-05T10:42:16.406Z,101005.50
2018-05-05T10:44:43.872Z,101004.97
2018-05-05T10:47:11.203Z,101010.44
2018-05-05T10:49:38.599Z,101009.55
2018-05-05T10:52:05.998Z,101003.77
2018-05-05T10:54:33.391Z,101003.30
2018-05-05T10:57:00.847Z,100998.86
2018-05-05T10:59:28.166Z,100993.12
2018-05-05T11:01:55.574Z,100987.86
2018-05-05T11:04:22.958Z,100993.17
2018-05-05T11:06:50.365Z,100992.00
2018-05-05T11:09:17.807Z,100983.03
2018-05-05T11:11:45.217Z,100983.80
2018-05-05T11:14:12.635Z,100986.60
2018-05-05T11:16:40.031Z,100983.44
2018-05-05T11:19:07.437Z,100979.75
2018-05-05T11:21:34.814Z,100978.92
2018-05-05T11:24:02.212Z,100977.15
2018-05-05T11:26:29.607Z,100968.42
2018-05-05T11:28:56.995Z,100974.23
2018-05-05T11:31:24.386Z,100970.94
2018-05-05T11:33:51.802Z,100972.36
2018-05-05T11:36:19.205Z,100973.80
2018-05-05T11:38:46.607Z,100966.97
2018-05-05T11:41:14.007Z,100969.86
2018-05-05T11:43:41.407Z,100962.42
2018-05-05T11:46:08.807Z,100960.92
2018-05-05T11:48:36.248Z,100953.34
2018-05-05T11:51:03.624Z,100946.28
2018-05-05T11:53:31.011Z,100956.52
2018-05-05T11:55:58.461Z,100959.35
2018-05-05T11:58:25.809Z,100961.51
2018-05-05T12:00:53.289Z,100955.48
2018-05-05T12:03:20.671Z,100948.52
2018-05-05T12:05:48.060Z,100948.47
2018-05-05T12:08:15.450Z,100949.25
2018-05-05T12:10:42.913Z,100957.56
2018-05-05T12:13:10.266Z,100957.80
2018-05-05T12:15:37.796Z,100950.13
2018-05-05T12:18:05.192Z,100946.60
2018-05-05T12:20:32.575Z,100947.83
2018-05-05T12:22:59.962Z,100948.77
2018-05-05T12:25:27.371Z,100944.02
2018-05-05T12:27:54.762Z,100937.70
2018-05-05T12:30:22.161Z,100938.86
2018-05-05T12:32:49.543Z,100943.32
2018-05-05T12:35:16.948Z,100943.97
2018-05-05T12:37:44.343Z,100941.52
2018-05-05T12:40:11.736Z,100935.25
2018-05-05T12:42:39.127Z,100930.44
2018-05-05T12:45:06.524Z,100937.64
2018-05-05T12:47:33.915Z,100925.66
2018-05-05T12:50:01.415Z,100931.14
2018-05-05T12:52:28.703Z,100928.52
2018-05-05T12:54:56.100Z,100929.13
2018-05-05T12:57:23.495Z,100923.77
2018-05-05T12:59:50.882Z,100916.77
2018-05-05T13:02:18.302Z,100915.03
2018-05-05T13:04:45.670Z,100914.50
2018-05-05T13:07:13.068Z,100917.11
2018-05-05T13:09:40.460Z,100914.90
2018-05-05T13:12:07.867Z,100908.22
2018-05-05T13:14:35.262Z,100911.59
2018-05-05T13:17:02.664Z,100900.41
2018-05-05T13:19:30.050Z,100903.81
2018-05-05T13:21:57.439Z,100904.75
2018-05-05T13:24:24.859Z,100899.17
2018-05-05T13:26:52.319Z,100903.18
2018-05-05T13:29:19.766Z,100893.20
2018-05-05T13:31:47.215Z,100889.99
2018-05-05T13:34:14.625Z,100887.16
2018-05-05T13:36:42.115Z,100877.83
2018-05-05T13:39:09.486Z,100879.12
2018-05-05T13:41:36.907Z,100882.25
2018-05-05T13:44:04.293Z,100878.73
2018-05-05T13:46:31.707Z,100881.27
2018-05-05T13:48:59.095Z,100879.86
2018-05-05T13:51:26.563Z,100879.65
2018-05-05T13:53:53.956Z,100871.75
2018-05-05T13:56:21.364Z,100868.81
2018-05-05T13:58:48.918Z,100858.66
2018-05-05T14:01:16.372Z,100860.08
2018-05-05T14:03:43.783Z,100864.77
2018-05-05T14:06:11.259Z,100857.81
2018-05-05T14:08:38.654Z,100853.55
2018-05-05T14:11:06.047Z,100853.20
2018-05-05T14:13:33.459Z,100849.94
2018-05-05T14:16:01.029Z,100851.93
2018-05-05T14:18:28.406Z,100848.07
2018-05-05T14:20:56.529Z,100846.34
2018-05-05T14:23:25.855Z,100836.20
2018-05-05T14:25:53.349Z,100836.50
2018-05-05T14:28:20.743Z,100827.80
2018-05-05T14:30:48.130Z,100824.83
2018-05-05T14:33:15.523Z,100827.41
2018-05-05T14:35:42.912Z,100818.19
2018-05-05T14:38:10.670Z,100820.53
2018-05-05T14:40:38.072Z,100819.94
2018-05-05T14:43:05.446Z,100821.47
2018-05-05T14:45:32.867Z,100817.77
2018-05-05T14:48:00.310Z,100820.83
2018-05-05T14:50:27.719Z,100820.06
2018-05-05T14:52:55.112Z,100818.38
2018-05-05T14:55:22.503Z,100816.44
2018-05-05T14:57:50.725Z,100813.42
2018-05-05T15:00:18.121Z,100818.03
2018-05-05T15:02:45.524Z,100813.55
2018-05-05T15:05:12.915Z,100812.17
2018-05-05T15:07:40.307Z,100818.57
2018-05-05T15:10:07.802Z,100808.46
2018-05-05T15:12:35.177Z,100811.00
2018-05-05T15:15:02.569Z,100812.94
2018-05-05T15:17:29.969Z,100806.52
2018-05-05T15:19:57.350Z,100811.42
2018-05-05T15:22:25.051Z,100804.61
2018-05-05T15:24:52.459Z,100800.10
2018-05-05T15:27:19.854Z,100802.70
2018-05-05T15:29:47.252Z,100806.88
2018-05-05T15:32:14.642Z,100808.23
2018-05-05T15:34:42.031Z,100803.22
2018-05-05T15:37:09.420Z,100798.77
2018-05-05T15:39:36.826Z,100796.60
2018-05-05T15:42:04.531Z,100798.75
2018-05-05T15:44:32.192Z,100787.77
2018-05-05T15:46:59.575Z,100793.50
2018-05-05T15:49:26.966Z,100788.59
2018-05-05T15:51:54.369Z,100788.84
2018-05-05T15:54:21.747Z,100792.16
2018-05-05T15:56:49.142Z,100788.84
2018-05-05T15:59:16.520Z,100785.80
2018-05-05T16:01:43.907Z,100784.41
2018-05-05T16:04:11.422Z,100783.84
2018-05-05T16:06:39.163Z,100780.92
2018-05-05T16:09:06.548Z,100782.05
2018-05-05T16:11:33.979Z,100775.36
2018-05-05T16:14:01.335Z,100776.59
2018-05-05T16:16:28.725Z,100775.99
2018-05-05T16:18:56.116Z,100775.39
2018-05-05T16:21:23.498Z,100781.81
2018-05-05T16:23:50.891Z,100778.23
2018-05-05T16:26:18.278Z,100777.78
2018-05-05T16:28:45.681Z,100781.52
2018-05-05T16:31:13.070Z,100783.98
2018-05-05T16:33:40.450Z,100773.62
2018-05-05T16:36:07.849Z,100776.92
2018-05-05T16:38:35.237Z,100777.06
2018-05-05T16:41:02.627Z,100773.61
2018-05-05T16:43:30.085Z,100769.82
2018-05-05T16:45:57.488Z,100773.75
2018-05-05T16:48:24.854Z,100774.76
2018-05-05T16:50:52.266Z,100773.83
2018-05-05T16:53:19.654Z,100770.01
2018-05-05T16:55:47.050Z,100763.96
2018-05-05T16:58:14.471Z,100767.23
2018-05-05T17:00:41.851Z,100767.66
2018-05-05T17:03:09.280Z,100774.62
2018-05-05T17:05:36.663Z,100766.67
2018-05-05T17:08:04.048Z,100767.30
2018-05-05T17:10:31.433Z,100765.73
2018-05-05T17:12:58.850Z,100769.23
2018-05-05T17:15:26.234Z,100762.23
2018-05-05T17:17:53.623Z,100766.66
2018-05-05T17:20:21.012Z,100773.05
2018-05-05T17:22:48.398Z,100769.39
2018-05-05T17:25:15.804Z,100765.50
2018-05-05T17:27:43.191Z,100767.05
2018-05-05T17:30:10.583Z,100776.71
2018-05-05T17:32:37.972Z,100779.13
2018-05-05T17:35:05.459Z,100775.39
2018-05-05T17:37:32.766Z,100772.55
2018-05-05T17:40:00.154Z,100777.84
2018-05-05T17:42:27.559Z,100778.94
2018-05-05T17:44:54.950Z,100774.32
2018-05-05T17:47:22.330Z,100768.81
2018-05-05T17:49:49.768Z,100770.03
2018-05-05T17:52:17.126Z,100773.82
2018-05-05T17:54:44.503Z,100770.95
2018-05-05T17:57:11.975Z,100779.41
2018-05-05T17:59:39.295Z,100776.56
2018-05-05T18:02:06.702Z,100780.53
2018-05-05T18:04:34.078Z,100778.91
2018-05-05T18:07:01.459Z,100787.88
2018-05-05T18:09:28.852Z,100788.14
2018-05-05T18:11:56.440Z,100784.89
2018-05-05T18:14:23.835Z,100789.14
2018-05-05T18:16:51.273Z,100790.20
2018-05-05T18:19:18.627Z,100786.66
2018-05-05T18:21:46.055Z,100793.02
2018-05-05T18:24:13.406Z,100791.11
2018-05-05T18:26:40.807Z,100798.28
2018-05-05T18:29:08.195Z,100798.16
2018-05-05T18:31:35.606Z,100792.98
2018-05-05T18:34:02.996Z,100799.70
2018-05-05T18:36:30.444Z,100801.43
2018-05-05T18:38:57.852Z,100803.41
2018-05-05T18:41:25.251Z,100805.16
2018-05-05T18:43:52.646Z,100806.84
2018-05-05T18:46:20.039Z,100808.00
2018-05-05T18:48:47.553Z,100815.52
2018-05-05T18:51:14.886Z,100814.66
2018-05-05T18:53:42.295Z,100811.10
2018-05-05T18:56:09.727Z,100811.94
2018-05-05T18:58:37.147Z,100821.14
2018-05-05T19:01:04.523Z,100821.44
2018-05-05T19:03:31.915Z,100821.80
2018-05-05T19:05:59.306Z,100823.40
2018-05-05T19:08:26.703Z,100828.44
2018-05-05T19:10:54.130Z,100829.94
2018-05-05T19:13:21.551Z,100830.45
2018-05-05T19:15:48.940Z,100830.80
2018-05-05T19:18:16.334Z,100827.92
2018-05-05T19:20:43.723Z,100833.98
2018-05-05T19:23:11.113Z,100841.79
2018-05-05T19:25:38.515Z,100843.16
2018-05-05T19:28:05.911Z,100842.91
2018-05-05T19:30:33.301Z,100844.36
2018-05-05T19:33:00.695Z,100848.79
2018-05-05T19:35:28.079Z,100846.05
2018-05-05T19:37:55.472Z,100844.23
2018-05-05T19:40:22.916Z,100847.59
2018-05-05T19:42:50.300Z,100851.88
2018-05-05T19:45:17.712Z,100852.62
2018-05-05T19:47:45.102Z,100848.24
2018-05-05T19:50:12.523Z,100844.97
2018-05-05T19:52:39.926Z,100845.14
2018-05-05T19:55:07.319Z,100852.53
2018-05-05T19:57:34.718Z,100849.27
2018-05-05T20:00:02.104Z,100849.74
2018-05-05T20:02:29.499Z,100850.06
2018-05-05T20:04:56.878Z,100855.41
2018-05-05T20:07:24.270Z,100857.81
2018-05-05T20:09:51.656Z,100861.84
2018-05-05T20:12:19.043Z,100862.53
2018-05-05T20:14:46.431Z,100867.93
2018-05-05T20:17:13.903Z,100863.16
2018-05-05T20:19:41.294Z,100867.97
2018-05-05T20:22:08.699Z,100870.05
2018-05-05T20:24:36.086Z,100875.59
2018-05-05T20:27:03.475Z,100877.51
2018-05-05T20:29:31.886Z,100875.14
2018-05-05T20:31:59.270Z,100876.70
2018-05-05T20:34:26.724Z,100882.81
2018-05-05T20:36:55.063Z,100887.01
2018-05-05T20:39:22.456Z,100886.81
2018-05-05T20:41:49.843Z,100882.63
2018-05-05T20:44:17.310Z,100887.03
2018-05-05T20:46:44.682Z,100887.47
2018-05-05T20:49:12.078Z,100893.06
2018-05-05T20:51:39.463Z,100887.18
2018-05-05T20:54:06.862Z,100894.47
2018-05-05T20:56:34.254Z,100891.55
2018-05-05T20:59:01.643Z,100893.20
2018-05-05T21:01:29.035Z,100893.14
2018-05-05T21:03:56.474Z,100892.63
2018-05-05T21:06:23.898Z,100902.64
2018-05-05T21:08:51.288Z,100902.06
2018-05-05T21:11:18.691Z,100907.02
2018-05-05T21:13:46.074Z,100906.99
2018-05-05T21:16:13.482Z,100912.09
2018-05-05T21:18:40.867Z,100922.07
2018-05-05T21:21:08.258Z,100923.38
2018-05-05T21:23:35.862Z,100923.57
2018-05-05T21:26:03.258Z,100917.53
2018-05-05T21:28:30.768Z,100926.73
2018-05-05T21:30:58.200Z,100929.92
2018-05-05T21:33:25.621Z,100926.58
2018-05-05T21:35:52.993Z,100929.88
2018-05-05T21:38:20.378Z,100925.55
2018-05-05T21:40:47.850Z,100933.39
2018-05-05T21:43:15.169Z,100934.38
2018-05-05T21:45:42.600Z,100937.98
2018-05-05T21:48:09.970Z,100938.87
2018-05-05T21:50:37.482Z,100935.39
2018-05-05T21:53:04.865Z,100934.52
2018-05-05T21:55:32.263Z,100940.79
2018-05-05T21:57:59.659Z,100941.77
2018-05-05T22:00:27.088Z,100943.33
2018-05-05T22:02:54.479Z,100935.40
2018-05-05T22:05:21.935Z,100936.75
2018-05-05T22:07:49.330Z,100933.95
2018-05-05T22:10:16.718Z,100931.44
2018-05-05T22:12:44.152Z,100928.96
2018-05-05T22:15:15.849Z,100924.80
2018-05-05T22:17:43.240Z,100931.08
2018-05-05T22:20:10.630Z,100929.33
2018-05-05T22:22:38.015Z,100925.84
2018-05-05T22:25:05.450Z,100922.69
2018-05-05T22:27:32.838Z,100920.29
2018-05-05T22:30:00.227Z,100920.38
2018-05-05T22:32:27.620Z,100921.03
2018-05-05T22:34:55.007Z,100925.17
2018-05-05T22:37:22.402Z,100916.00
2018-05-05T22:39:49.790Z,100923.86
2018-05-05T22:42:17.187Z,100917.25
2018-05-05T22:44:44.583Z,100928.97
2018-05-05T22:47:11.967Z,100933.03
2018-05-05T22:49:39.362Z,100928.28
2018-05-05T22:52:06.747Z,100931.90
2018-05-05T22:54:34.144Z,100924.67
2018-05-05T22:57:01.523Z,100929.81
2018-05-05T22:59:28.910Z,100931.83
2018-05-05T23:01:56.298Z,100933.14
2018-05-05T23:04:23.688Z,100931.85
2018-05-05T23:06:51.087Z,100936.62
2018-05-05T23:09:18.466Z,100940.88
2018-05-05T23:11:45.863Z,100933.87
2018-05-05T23:14:13.251Z,100942.69
2018-05-05T23:16:40.638Z,100937.06
2018-05-05T23:19:08.031Z,100935.33
2018-05-05T23:21:35.423Z,100937.25
2018-05-05T23:24:02.816Z,100937.38
2018-05-05T23:26:30.272Z,100945.40
2018-05-05T23:28:57.664Z,100939.75
2018-05-05T23:31:25.051Z,100937.73
2018-05-05T23:33:52.451Z,100938.20
2018-05-05T23:36:19.843Z,100942.64
2018-05-05T23:38:47.222Z,100942.64
2018-05-05T23:41:14.625Z,100939.56
2018-05-05T23:43:42.006Z,100936.62
2018-05-05T23:46:09.407Z,100939.92
2018-05-05T23:48:36.794Z,100937.55
2018-05-05T23:51:04.336Z,100936.44
2018-05-05T23:53:31.723Z,100931.45
2018-05-05T23:55:59.166Z,100932.42
2018-05-05T23:58:26.535Z,100933.23
